Time;durP1;ratioP1;P1;durP2;ratioP2;P2;SDS_P1;SDS_P2;PMS_P1;PMS_P2;Temp;Humidity;BMP_temperature;BMP_pressure;BME280_temperature;BME280_humidity;BME280_pressure;Samples;Min_cycle;Max_cycle;Signal;HPM_P1;HPM_P2
2023/07/07 00:01:36;;;;;;;1.80;1.70;;;21.20;63.90;;;;;;5040243;28;20656;-85
2023/07/07 00:04:02;;;;;;;2.13;1.92;;;21.10;63.80;;;;;;5057303;28;20550;-86
2023/07/07 00:06:28;;;;;;;1.85;1.75;;;21.10;63.90;;;;;;5075543;28;20163;-86
2023/07/07 00:08:55;;;;;;;1.92;1.70;;;21.10;63.80;;;;;;5075021;28;20215;-86
2023/07/07 00:11:21;;;;;;;1.90;1.70;;;21.10;63.80;;;;;;5057479;28;20174;-85
2023/07/07 00:13:54;;;;;;;1.80;1.70;;;21.10;63.90;;;;;;5057285;28;20165;-86
2023/07/07 00:16:22;;;;;;;1.60;1.50;;;21.10;63.90;;;;;;5025119;28;20715;-85
2023/07/07 00:18:52;;;;;;;1.67;1.58;;;21.10;63.90;;;;;;5057250;28;20579;-85
2023/07/07 00:21:24;;;;;;;2.00;1.90;;;21.20;64.00;;;;;;5023678;28;20211;-85
2023/07/07 00:23:58;;;;;;;2.13;1.90;;;21.10;63.80;;;;;;5024341;28;20185;-85
2023/07/07 00:26:24;;;;;;;1.70;1.60;;;21.10;63.80;;;;;;5023781;28;20188;-86
2023/07/07 00:28:57;;;;;;;2.03;1.83;;;21.10;63.80;;;;;;5073700;28;20153;-85
2023/07/07 00:31:24;;;;;;;1.80;1.70;;;21.10;63.80;;;;;;5006986;28;20173;-85
2023/07/07 00:33:50;;;;;;;1.70;1.60;;;21.10;63.80;;;;;;5073950;28;20676;-86
2023/07/07 00:36:15;;;;;;;1.80;1.70;;;21.10;63.80;;;;;;5078170;28;20358;-85
2023/07/07 00:38:41;;;;;;;1.70;1.60;;;21.10;63.80;;;;;;5043823;28;20356;-85
2023/07/07 00:41:12;;;;;;;1.60;1.50;;;21.10;63.80;;;;;;5059932;28;20167;-85
2023/07/07 00:43:38;;;;;;;1.65;1.55;;;21.10;63.80;;;;;;5026050;28;20695;-85
2023/07/07 00:46:08;;;;;;;1.92;1.80;;;21.20;63.90;;;;;;5059702;28;20498;-86
2023/07/07 00:48:37;;;;;;;1.80;1.70;;;21.10;63.80;;;;;;5026469;28;20253;-86
2023/07/07 00:51:10;;;;;;;2.38;2.00;;;21.10;63.80;;;;;;5077147;28;20175;-86
2023/07/07 00:53:41;;;;;;;1.63;1.52;;;21.10;63.80;;;;;;5042979;28;20276;-86
2023/07/07 00:56:11;;;;;;;1.60;1.50;;;21.10;63.90;;;;;;5010112;28;20242;-86
2023/07/07 00:58:38;;;;;;;1.80;1.70;;;21.10;63.90;;;;;;5076397;28;20210;-86
2023/07/07 01:01:12;;;;;;;1.90;1.80;;;21.10;64.00;;;;;;5077024;28;20156;-86
2023/07/07 01:03:51;;;;;;;1.70;1.60;;;21.10;64.00;;;;;;5010679;28;20208;-86
2023/07/07 01:06:20;;;;;;;1.77;1.67;;;21.10;64.00;;;;;;5045260;28;20202;-86
2023/07/07 01:08:47;;;;;;;2.00;1.80;;;21.10;63.90;;;;;;5059989;28;20179;-85
2023/07/07 01:11:16;;;;;;;1.67;1.58;;;21.10;63.90;;;;;;5059691;28;20160;-86
2023/07/07 01:13:48;;;;;;;2.00;1.90;;;21.10;63.90;;;;;;5076545;28;20627;-86
2023/07/07 01:16:24;;;;;;;1.70;1.60;;;21.10;63.90;;;;;;5009186;28;20208;-85
2023/07/07 01:19:35;;;;;;;1.73;1.63;;;21.10;63.90;;;;;;5076549;28;20191;-85
2023/07/07 01:22:41;;;;;;;1.80;1.70;;;21.10;63.90;;;;;;5079343;28;20153;-86
2023/07/07 01:25:41;;;;;;;2.17;1.98;;;21.10;63.90;;;;;;5094619;28;20156;-85
2023/07/07 01:28:33;;;;;;;1.88;1.67;;;21.00;63.80;;;;;;5048563;28;20184;-85
2023/07/07 01:31:08;;;;;;;1.63;1.52;;;21.10;63.80;;;;;;5094074;28;20195;-86
2023/07/07 01:33:34;;;;;;;2.00;1.80;;;21.10;63.90;;;;;;5076402;28;20175;-86
2023/07/07 01:35:59;;;;;;;2.10;1.90;;;21.10;63.80;;;;;;5075851;28;20153;-86
2023/07/07 01:38:41;;;;;;;1.60;1.50;;;21.00;63.90;;;;;;5059283;28;20161;-87
2023/07/07 01:41:38;;;;;;;1.63;1.52;;;21.10;63.90;;;;;;5025751;28;20249;-86
2023/07/07 01:44:16;;;;;;;1.67;1.58;;;21.10;63.80;;;;;;5076581;28;20153;-86
2023/07/07 01:46:55;;;;;;;1.80;1.70;;;21.10;64.00;;;;;;5076149;28;20168;-86
2023/07/07 01:49:26;;;;;;;1.67;1.58;;;21.10;64.00;;;;;;5042877;28;20631;-86
2023/07/07 01:52:12;;;;;;;1.80;1.70;;;21.10;64.00;;;;;;5075904;28;20526;-86
2023/07/07 01:54:41;;;;;;;1.92;1.83;;;21.00;63.90;;;;;;5075951;28;20149;-86
2023/07/07 01:57:07;;;;;;;2.17;1.98;;;21.00;63.80;;;;;;5076070;28;20226;-85
2023/07/07 01:59:33;;;;;;;1.98;1.77;;;21.10;63.90;;;;;;5063051;28;20168;-86
2023/07/07 02:02:00;;;;;;;1.92;1.70;;;21.10;63.90;;;;;;5063123;28;20169;-85
2023/07/07 02:04:26;;;;;;;1.60;1.50;;;21.10;63.90;;;;;;5080044;28;20192;-85
2023/07/07 02:06:52;;;;;;;2.00;1.80;;;21.10;63.90;;;;;;5079745;28;20215;-85
2023/07/07 02:09:23;;;;;;;1.95;1.75;;;21.10;63.90;;;;;;5062770;28;20169;-85
2023/07/07 02:11:49;;;;;;;1.75;1.65;;;21.10;63.80;;;;;;5029299;28;20184;-85
2023/07/07 02:14:15;;;;;;;1.80;1.70;;;21.10;63.90;;;;;;5079581;28;20149;-86
2023/07/07 02:16:41;;;;;;;1.60;1.50;;;21.10;64.00;;;;;;5063206;28;20658;-85
2023/07/07 02:19:12;;;;;;;1.60;1.50;;;21.00;63.90;;;;;;5063210;28;20163;-85
2023/07/07 02:21:43;;;;;;;1.75;1.65;;;21.10;64.00;;;;;;5013046;28;20211;-86
2023/07/07 02:24:09;;;;;;;1.83;1.73;;;21.10;64.00;;;;;;5045388;28;20667;-85
2023/07/07 02:26:40;;;;;;;1.80;1.70;;;21.10;64.00;;;;;;5079243;28;20247;-85
2023/07/07 02:29:10;;;;;;;1.60;1.50;;;21.10;63.90;;;;;;5045311;28;20191;-85
2023/07/07 02:31:36;;;;;;;1.92;1.50;;;21.10;63.90;;;;;;5029019;28;20646;-86
2023/07/07 02:34:06;;;;;;;2.10;1.90;;;21.10;63.90;;;;;;5079952;28;20153;-86
2023/07/07 02:36:31;;;;;;;1.80;1.70;;;21.10;64.00;;;;;;5028481;28;20228;-86
2023/07/07 02:39:03;;;;;;;1.80;1.70;;;21.10;64.00;;;;;;5062890;28;20168;-85
2023/07/07 02:41:28;;;;;;;1.70;1.52;;;21.10;63.90;;;;;;5028881;28;20180;-86
2023/07/07 02:43:54;;;;;;;1.58;1.40;;;21.10;64.00;;;;;;5078898;28;20176;-85
2023/07/07 02:46:20;;;;;;;1.60;1.50;;;21.10;64.00;;;;;;5097248;28;20503;-85
2023/07/07 02:48:46;;;;;;;1.73;1.63;;;21.00;63.90;;;;;;5062554;28;20185;-85
2023/07/07 02:51:12;;;;;;;2.13;1.92;;;21.00;64.00;;;;;;5079290;28;20519;-86
2023/07/07 02:53:42;;;;;;;1.75;1.65;;;21.10;64.00;;;;;;5078963;28;20153;-85
2023/07/07 02:56:12;;;;;;;1.98;1.77;;;21.10;64.10;;;;;;5012309;28;20177;-85
2023/07/07 02:58:43;;;;;;;1.77;1.67;;;21.00;64.00;;;;;;5044980;28;20537;-85
2023/07/07 03:01:12;;;;;;;1.88;1.70;;;21.00;64.10;;;;;;5045242;28;20180;-85
2023/07/07 03:03:40;;;;;;;1.60;1.50;;;21.00;64.10;;;;;;5062158;28;20492;-85
2023/07/07 03:06:07;;;;;;;1.80;1.70;;;21.00;64.10;;;;;;5062349;28;20168;-85
2023/07/07 03:08:33;;;;;;;1.90;1.80;;;21.00;64.00;;;;;;5061715;28;20536;-85
2023/07/07 03:11:04;;;;;;;1.75;1.65;;;21.10;64.10;;;;;;5062095;28;20173;-85
2023/07/07 03:13:36;;;;;;;1.50;1.40;;;21.00;64.00;;;;;;5062643;28;20527;-85
2023/07/07 03:16:20;;;;;;;1.77;1.67;;;21.10;64.00;;;;;;5011750;28;20179;-86
2023/07/07 03:18:48;;;;;;;1.92;1.83;;;21.00;64.00;;;;;;5061785;28;20168;-86
2023/07/07 03:21:16;;;;;;;1.80;1.70;;;21.00;64.70;;;;;;5062115;28;20160;-85
2023/07/07 03:23:43;;;;;;;1.70;1.60;;;21.00;64.00;;;;;;5061656;28;20233;-85
2023/07/07 03:26:10;;;;;;;1.70;1.60;;;21.10;64.00;;;;;;5061776;28;20188;-86
2023/07/07 03:28:36;;;;;;;1.63;1.52;;;21.10;64.00;;;;;;5061534;28;20161;-86
2023/07/07 03:31:08;;;;;;;1.90;1.80;;;21.10;64.00;;;;;;5078473;28;20156;-86
2023/07/07 03:33:34;;;;;;;1.70;1.60;;;21.00;64.00;;;;;;5096219;28;20149;-86
2023/07/07 03:36:00;;;;;;;1.77;1.67;;;21.00;64.00;;;;;;5095766;28;20172;-86
2023/07/07 03:38:26;;;;;;;1.70;1.60;;;21.10;64.10;;;;;;5078213;28;20161;-86
2023/07/07 03:40:55;;;;;;;1.75;1.65;;;21.00;64.00;;;;;;5061310;28;20670;-86
2023/07/07 03:43:21;;;;;;;1.70;1.60;;;21.10;64.10;;;;;;5027791;28;20530;-86
2023/07/07 03:45:47;;;;;;;2.00;1.85;;;21.00;63.90;;;;;;5061356;28;20156;-86
2023/07/07 03:48:18;;;;;;;1.63;1.52;;;21.00;64.90;;;;;;5061274;28;20539;-86
2023/07/07 03:50:58;;;;;;;1.80;1.70;;;21.00;64.00;;;;;;5027545;28;20226;-86
2023/07/07 03:53:29;;;;;;;1.60;1.50;;;21.10;64.20;;;;;;5027678;28;20226;-86
2023/07/07 03:55:59;;;;;;;1.80;1.70;;;21.00;64.10;;;;;;5043929;28;20252;-85
2023/07/07 03:58:26;;;;;;;1.65;1.55;;;21.00;64.10;;;;;;5027499;28;20177;-85
2023/07/07 04:01:00;;;;;;;2.10;1.90;;;21.10;64.10;;;;;;5061020;28;20184;-85
2023/07/07 04:03:30;;;;;;;1.73;1.63;;;21.00;64.10;;;;;;5028413;28;20172;-85
2023/07/07 04:05:56;;;;;;;2.33;1.70;;;21.00;64.10;;;;;;5027358;28;20564;-86
2023/07/07 04:08:23;;;;;;;1.80;1.70;;;21.00;64.10;;;;;;5077562;28;20192;-86
2023/07/07 04:11:05;;;;;;;1.60;1.50;;;21.00;64.10;;;;;;5077814;28;20184;-85
2023/07/07 04:13:39;;;;;;;1.92;1.83;;;21.00;64.10;;;;;;5060811;28;20189;-86
2023/07/07 04:16:21;;;;;;;1.70;1.60;;;21.00;64.20;;;;;;5042982;28;20176;-85
2023/07/07 04:18:47;;;;;;;1.85;1.75;;;21.00;64.10;;;;;;5029832;28;20185;-85
2023/07/07 04:21:20;;;;;;;2.15;1.67;;;21.00;64.10;;;;;;5093918;28;20153;-86
2023/07/07 04:23:46;;;;;;;2.03;1.83;;;21.00;64.10;;;;;;5060093;28;20248;-86
2023/07/07 04:26:12;;;;;;;1.58;1.48;;;21.00;64.10;;;;;;5076578;28;20153;-85
2023/07/07 04:28:42;;;;;;;1.60;1.50;;;21.00;64.10;;;;;;5076510;28;20611;-86
2023/07/07 04:31:13;;;;;;;1.90;1.70;;;21.00;64.10;;;;;;5009762;28;20177;-85
2023/07/07 04:33:39;;;;;;;1.63;1.52;;;21.00;64.10;;;;;;5025994;28;20180;-86
2023/07/07 04:36:08;;;;;;;1.80;1.70;;;21.00;64.10;;;;;;5076101;28;20515;-85
2023/07/07 04:38:34;;;;;;;1.70;1.60;;;21.00;64.10;;;;;;5059730;28;20184;-87
2023/07/07 04:41:14;;;;;;;1.85;1.73;;;21.00;64.10;;;;;;5059770;28;20156;-86
2023/07/07 04:43:45;;;;;;;1.73;1.63;;;21.00;64.10;;;;;;5060009;28;20161;-87
2023/07/07 04:46:13;;;;;;;1.80;1.70;;;21.00;64.10;;;;;;5026371;28;20200;-87
2023/07/07 04:48:39;;;;;;;1.50;1.40;;;21.00;64.10;;;;;;5059586;28;20169;-87
2023/07/07 04:51:07;;;;;;;1.90;1.70;;;21.00;64.10;;;;;;5076234;28;20147;-87
2023/07/07 04:53:33;;;;;;;2.00;1.80;;;20.90;64.10;;;;;;5076557;28;20153;-86
2023/07/07 04:56:09;;;;;;;1.80;1.70;;;21.00;64.10;;;;;;5075876;28;20156;-87
2023/07/07 04:58:36;;;;;;;1.90;1.75;;;21.00;64.20;;;;;;5028357;28;20184;-87
2023/07/07 05:01:15;;;;;;;1.90;1.77;;;20.90;64.00;;;;;;5076134;28;20149;-86
2023/07/07 05:03:41;;;;;;;1.75;1.65;;;21.10;64.20;;;;;;5010392;28;20192;-86
2023/07/07 05:06:11;;;;;;;1.80;1.70;;;21.00;64.20;;;;;;5059154;28;20169;-85
2023/07/07 05:08:39;;;;;;;1.50;1.40;;;21.00;64.10;;;;;;5042042;28;20612;-85
2023/07/07 05:11:10;;;;;;;1.70;1.60;;;21.00;64.10;;;;;;5059427;28;20160;-86
2023/07/07 05:13:36;;;;;;;1.80;1.70;;;21.10;64.10;;;;;;5009364;28;20187;-85
2023/07/07 05:16:03;;;;;;;1.80;1.70;;;21.00;64.10;;;;;;5058990;28;20516;-85
2023/07/07 05:18:29;;;;;;;1.58;1.45;;;21.00;64.10;;;;;;5058972;28;20169;-86
2023/07/07 05:20:55;;;;;;;1.80;1.67;;;21.00;64.10;;;;;;5058953;28;20169;-86
2023/07/07 05:23:25;;;;;;;1.67;1.58;;;21.00;64.10;;;;;;5075754;28;20493;-86
2023/07/07 05:25:51;;;;;;;1.60;1.50;;;21.00;64.10;;;;;;5025969;28;20648;-86
2023/07/07 05:28:17;;;;;;;1.75;1.65;;;21.00;64.00;;;;;;5059558;28;20172;-87
2023/07/07 05:30:43;;;;;;;1.55;1.45;;;20.90;64.00;;;;;;5043806;28;20184;-87
2023/07/07 05:33:15;;;;;;;1.60;1.50;;;21.00;64.00;;;;;;5060818;28;20141;-87
2023/07/07 05:35:49;;;;;;;1.60;1.50;;;21.00;64.00;;;;;;5060164;28;20166;-87
2023/07/07 05:38:16;;;;;;;1.88;1.70;;;21.00;64.00;;;;;;5041898;28;20239;-87
2023/07/07 05:40:43;;;;;;;1.45;1.35;;;21.00;64.00;;;;;;5058861;28;20206;-87
2023/07/07 05:43:09;;;;;;;1.50;1.40;;;21.00;63.70;;;;;;5044558;28;20609;-88
2023/07/07 05:45:36;;;;;;;1.48;1.38;;;21.10;63.60;;;;;;5095373;28;20195;-88
2023/07/07 05:48:01;;;;;;;1.65;1.50;;;20.90;63.40;;;;;;5078279;28;20172;-88
2023/07/07 05:50:27;;;;;;;1.70;1.60;;;21.00;63.60;;;;;;5060980;28;20157;-87
2023/07/07 05:52:55;;;;;;;1.70;1.60;;;21.00;63.60;;;;;;5041913;28;20165;-87
2023/07/07 05:55:38;;;;;;;1.70;1.60;;;20.90;63.40;;;;;;5042071;28;20171;-86
2023/07/07 05:58:03;;;;;;;1.38;1.27;;;20.90;63.60;;;;;;5041185;28;20667;-85
2023/07/07 06:00:32;;;;;;;1.60;1.50;;;20.90;63.40;;;;;;5058693;28;20163;-85
2023/07/07 06:02:59;;;;;;;1.33;1.23;;;20.90;63.70;;;;;;5042323;28;20161;-86
2023/07/07 06:05:25;;;;;;;1.70;1.60;;;20.80;63.70;;;;;;5058495;28;20180;-85
2023/07/07 06:07:53;;;;;;;1.40;1.30;;;20.80;63.80;;;;;;5042287;28;20195;-86
2023/07/07 06:10:22;;;;;;;1.38;1.27;;;20.80;63.80;;;;;;5040440;28;20181;-86
2023/07/07 06:12:48;;;;;;;1.70;1.60;;;20.80;63.90;;;;;;5030339;28;20180;-83
2023/07/07 06:15:14;;;;;;;1.58;1.48;;;20.80;63.90;;;;;;5054683;28;20533;-85
2023/07/07 06:17:45;;;;;;;1.63;1.52;;;20.80;64.00;;;;;;5036444;28;20228;-83
2023/07/07 06:20:18;;;;;;;1.85;1.48;;;20.70;64.00;;;;;;5034590;28;20176;-84
2023/07/07 06:22:45;;;;;;;1.50;1.40;;;20.70;64.00;;;;;;5036943;28;20181;-84
2023/07/07 06:25:15;;;;;;;1.70;1.60;;;20.70;64.00;;;;;;5083717;28;20157;-86
2023/07/07 06:27:41;;;;;;;1.70;1.60;;;20.70;64.10;;;;;;5034576;28;20189;-85
2023/07/07 06:30:11;;;;;;;1.63;1.52;;;20.70;64.10;;;;;;5062631;28;20157;-88
2023/07/07 06:32:37;;;;;;;1.60;1.50;;;20.70;64.20;;;;;;5041206;28;20635;-84
2023/07/07 06:35:04;;;;;;;1.48;1.38;;;20.70;64.20;;;;;;5075267;28;20611;-84
2023/07/07 06:37:30;;;;;;;1.80;1.50;;;20.70;64.30;;;;;;5055698;28;20239;-86
2023/07/07 06:39:56;;;;;;;1.30;1.20;;;20.60;64.30;;;;;;5072048;28;20154;-87
2023/07/07 06:42:22;;;;;;;1.50;1.40;;;20.70;64.40;;;;;;5055326;28;20154;-84
2023/07/07 06:44:48;;;;;;;1.75;1.60;;;20.70;64.40;;;;;;5073798;28;20161;-85
2023/07/07 06:47:16;;;;;;;1.50;1.40;;;20.60;64.30;;;;;;5075653;28;20161;-84
2023/07/07 06:49:42;;;;;;;2.45;1.45;;;20.70;64.40;;;;;;5060398;28;20169;-85
2023/07/07 06:52:08;;;;;;;1.80;1.70;;;20.70;64.40;;;;;;5059835;28;20165;-87
2023/07/07 06:54:38;;;;;;;1.52;1.42;;;20.70;64.40;;;;;;5075188;28;20554;-86
2023/07/07 06:57:04;;;;;;;1.83;1.50;;;20.70;64.40;;;;;;5024708;28;20209;-87
2023/07/07 06:59:30;;;;;;;1.58;1.48;;;20.70;64.30;;;;;;5058095;28;20240;-83
2023/07/07 07:01:56;;;;;;;1.70;1.60;;;20.60;64.30;;;;;;5075551;28;20485;-84
2023/07/07 07:04:22;;;;;;;1.58;1.48;;;20.60;64.50;;;;;;5058616;28;20180;-87
2023/07/07 07:06:50;;;;;;;1.45;1.35;;;20.70;64.40;;;;;;5075072;28;20203;-85
2023/07/07 07:09:16;;;;;;;1.65;1.55;;;20.70;64.40;;;;;;5059653;28;20627;-88
2023/07/07 07:11:42;;;;;;;1.58;1.48;;;20.70;65.30;;;;;;5059717;28;20153;-88
2023/07/07 07:14:13;;;;;;;1.73;1.63;;;20.70;64.70;;;;;;5058578;28;20158;-86
2023/07/07 07:16:45;;;;;;;1.70;1.60;;;20.60;64.50;;;;;;5041960;28;20668;-89
2023/07/07 07:19:14;;;;;;;2.75;1.30;;;20.70;64.70;;;;;;5041582;28;20327;-86
2023/07/07 07:21:41;;;;;;;1.50;1.38;;;20.60;64.70;;;;;;5024568;28;20181;-86
2023/07/07 07:24:07;;;;;;;1.48;1.38;;;20.70;64.70;;;;;;5075398;28;20173;-88
2023/07/07 07:26:41;;;;;;;1.80;1.70;;;20.70;64.60;;;;;;5058915;28;20173;-86
2023/07/07 07:29:14;;;;;;;1.42;1.33;;;20.60;64.70;;;;;;5042545;28;20220;-87
2023/07/07 07:31:41;;;;;;;1.52;1.42;;;20.60;64.70;;;;;;5026560;28;20192;-86
2023/07/07 07:34:24;;;;;;;1.48;1.38;;;20.70;64.70;;;;;;5058692;28;20242;-86
2023/07/07 07:36:50;;;;;;;1.83;1.60;;;20.60;64.70;;;;;;5057801;28;20225;-87
2023/07/07 07:39:16;;;;;;;1.63;1.52;;;20.60;64.70;;;;;;5042173;28;20161;-86
2023/07/07 07:41:44;;;;;;;1.50;1.40;;;20.70;64.70;;;;;;5058576;28;20226;-88
2023/07/07 07:44:10;;;;;;;2.47;1.75;;;20.60;64.70;;;;;;5042446;28;20170;-86
2023/07/07 07:46:35;;;;;;;1.67;1.58;;;20.70;64.70;;;;;;5075222;28;20165;-90
2023/07/07 07:49:01;;;;;;;1.70;1.60;;;20.60;64.70;;;;;;5074894;28;20188;-87
2023/07/07 07:51:27;;;;;;;1.60;1.50;;;20.70;64.80;;;;;;5057554;28;20165;-87
2023/07/07 07:54:14;;;;;;;1.42;1.33;;;20.70;64.70;;;;;;5058162;28;20215;-89
2023/07/07 07:56:40;;;;;;;1.65;1.30;;;20.70;64.70;;;;;;5073052;28;20193;-88
2023/07/07 07:59:06;;;;;;;1.63;1.52;;;20.70;64.70;;;;;;5056622;28;20579;-85
2023/07/07 08:01:32;;;;;;;1.52;1.42;;;20.70;64.90;;;;;;5042182;28;20679;-88
2023/07/07 08:03:58;;;;;;;1.65;1.55;;;20.70;65.00;;;;;;5058931;28;20173;-87
2023/07/07 08:06:24;;;;;;;1.48;1.38;;;20.60;65.00;;;;;;5073390;28;20177;-87
2023/07/07 08:08:49;;;;;;;1.85;1.75;;;20.70;65.20;;;;;;5073698;28;20255;-86
2023/07/07 08:11:18;;;;;;;1.88;1.67;;;20.70;65.20;;;;;;5073407;28;20240;-85
2023/07/07 08:13:43;;;;;;;1.60;1.50;;;20.60;65.20;;;;;;5057932;28;20196;-86
2023/07/07 08:16:10;;;;;;;2.25;1.60;;;20.60;65.20;;;;;;5057058;28;20173;-87
2023/07/07 08:18:37;;;;;;;1.70;1.40;;;20.70;65.30;;;;;;5057037;28;20181;-87
2023/07/07 08:21:04;;;;;;;2.00;1.60;;;20.60;65.20;;;;;;5042078;28;20612;-86
2023/07/07 08:23:30;;;;;;;1.58;1.48;;;20.70;65.20;;;;;;5040482;28;20181;-87
2023/07/07 08:25:56;;;;;;;1.52;1.42;;;20.70;65.20;;;;;;5057146;28;20153;-87
2023/07/07 08:28:22;;;;;;;1.42;1.33;;;20.70;65.30;;;;;;5056771;28;20623;-87
2023/07/07 08:30:53;;;;;;;1.60;1.50;;;20.70;65.20;;;;;;5040391;28;20188;-86
2023/07/07 08:33:20;;;;;;;1.85;1.75;;;20.70;65.20;;;;;;5058667;28;20223;-87
2023/07/07 08:35:46;;;;;;;1.65;1.55;;;20.70;65.30;;;;;;5077282;28;20168;-85
2023/07/07 08:38:12;;;;;;;1.70;1.60;;;20.60;65.30;;;;;;5057358;28;20317;-85
2023/07/07 08:40:45;;;;;;;2.13;1.42;;;20.60;65.40;;;;;;5073801;28;20153;-87
2023/07/07 08:43:11;;;;;;;1.60;1.50;;;20.70;65.50;;;;;;5056655;28;20212;-87
2023/07/07 08:45:43;;;;;;;1.80;1.70;;;20.70;65.40;;;;;;5038876;28;20189;-85
2023/07/07 08:48:20;;;;;;;2.00;1.80;;;20.70;65.40;;;;;;5025182;28;20262;-86
2023/07/07 08:50:51;;;;;;;1.80;1.70;;;20.70;65.40;;;;;;5074138;28;20620;-86
2023/07/07 08:53:30;;;;;;;2.15;1.92;;;20.70;65.60;;;;;;5058729;28;20623;-85
2023/07/07 08:56:23;;;;;;;1.90;1.70;;;20.70;65.50;;;;;;5040074;28;20177;-85
2023/07/07 08:58:57;;;;;;;1.67;1.58;;;20.70;65.40;;;;;;5040550;28;20180;-86
2023/07/07 09:01:52;;;;;;;1.88;1.65;;;20.70;65.60;;;;;;5071979;28;20547;-84
2023/07/07 09:04:33;;;;;;;1.85;1.75;;;20.70;65.60;;;;;;5053661;28;20169;-86
2023/07/07 09:07:21;;;;;;;2.63;1.58;;;20.70;65.70;;;;;;5021236;28;20181;-85
2023/07/07 09:10:20;;;;;;;1.75;1.65;;;20.70;65.90;;;;;;5043084;28;20173;-86
2023/07/07 09:12:52;;;;;;;2.72;1.77;;;20.70;65.40;;;;;;5031035;28;20196;-87
2023/07/07 09:15:30;;;;;;;1.52;1.42;;;20.80;65.60;;;;;;5023578;28;20185;-86
2023/07/07 09:18:00;;;;;;;1.70;1.60;;;20.80;65.50;;;;;;5040000;28;20216;-87
2023/07/07 09:20:28;;;;;;;1.60;1.50;;;20.80;65.60;;;;;;5005500;28;20173;-87
2023/07/07 09:22:57;;;;;;;1.90;1.77;;;20.70;65.40;;;;;;5055412;28;20173;-85
2023/07/07 09:25:28;;;;;;;1.88;1.77;;;20.70;65.50;;;;;;5072067;28;20215;-87
2023/07/07 09:27:57;;;;;;;1.88;1.67;;;20.70;65.60;;;;;;5071985;28;20158;-86
2023/07/07 09:30:35;;;;;;;1.90;1.80;;;20.70;65.70;;;;;;5071967;28;20611;-86
2023/07/07 09:33:01;;;;;;;2.65;1.90;;;20.60;65.60;;;;;;5056060;28;20161;-86
2023/07/07 09:35:32;;;;;;;2.20;2.00;;;20.70;65.80;;;;;;5055565;28;20171;-85
2023/07/07 09:38:11;;;;;;;1.90;1.70;;;20.70;65.80;;;;;;5055113;28;20282;-85
2023/07/07 09:40:44;;;;;;;1.70;1.60;;;20.70;65.80;;;;;;5023883;28;20600;-84
2023/07/07 09:43:22;;;;;;;1.85;1.70;;;20.70;66.00;;;;;;5072280;28;20169;-86
2023/07/07 09:46:04;;;;;;;2.00;1.80;;;20.60;65.90;;;;;;5072360;28;20161;-85
2023/07/07 09:48:44;;;;;;;1.83;1.70;;;20.70;65.90;;;;;;5072023;28;20184;-86
2023/07/07 09:51:17;;;;;;;1.70;1.60;;;20.70;65.90;;;;;;5009924;28;20177;-85
2023/07/07 09:53:46;;;;;;;2.05;1.85;;;20.70;65.90;;;;;;5073264;28;20220;-85
2023/07/07 09:56:18;;;;;;;2.60;2.00;;;20.70;65.80;;;;;;5054618;28;20165;-86
2023/07/07 09:58:50;;;;;;;2.28;1.98;;;20.70;65.90;;;;;;5022994;28;20232;-86
2023/07/07 10:01:17;;;;;;;2.40;1.73;;;20.80;65.90;;;;;;5056967;28;20539;-85
2023/07/07 10:03:45;;;;;;;2.17;1.98;;;20.70;65.80;;;;;;5055437;28;20153;-87
2023/07/07 10:06:34;;;;;;;2.15;1.80;;;20.80;65.90;;;;;;5072531;28;20177;-86
2023/07/07 10:09:01;;;;;;;2.63;1.98;;;20.80;66.00;;;;;;5058258;28;20176;-85
2023/07/07 10:11:30;;;;;;;2.55;2.20;;;20.70;66.00;;;;;;5038727;28;20216;-85
2023/07/07 10:13:58;;;;;;;2.20;2.00;;;20.80;66.20;;;;;;5040859;28;20536;-87
2023/07/07 10:17:04;;;;;;;2.30;2.10;;;20.80;66.10;;;;;;5055539;28;20264;-86
2023/07/07 10:19:32;;;;;;;2.92;2.05;;;20.80;66.20;;;;;;5063111;28;20210;-86
2023/07/07 10:21:58;;;;;;;2.20;2.00;;;20.80;66.10;;;;;;5075445;28;20158;-86
2023/07/07 10:24:23;;;;;;;2.25;2.05;;;20.80;66.30;;;;;;5059606;28;20188;-87
2023/07/07 10:26:51;;;;;;;3.17;2.05;;;20.80;66.00;;;;;;5074713;28;20181;-87
2023/07/07 10:29:23;;;;;;;1.85;1.75;;;20.80;66.10;;;;;;5042088;28;20183;-86
2023/07/07 10:31:54;;;;;;;2.92;1.95;;;20.80;66.20;;;;;;5028830;28;20181;-85
2023/07/07 10:34:32;;;;;;;2.20;2.00;;;20.80;66.20;;;;;;5060868;28;20169;-84
2023/07/07 10:36:59;;;;;;;2.15;1.90;;;20.80;66.30;;;;;;5078506;28;20691;-85
2023/07/07 10:39:27;;;;;;;2.38;2.17;;;20.80;66.20;;;;;;5058846;28;20172;-85
2023/07/07 10:41:53;;;;;;;2.20;2.00;;;20.80;66.20;;;;;;5075159;28;20519;-89
2023/07/07 10:44:25;;;;;;;2.15;1.92;;;20.70;66.10;;;;;;5075038;28;20647;-85
2023/07/07 10:46:51;;;;;;;3.58;2.20;;;20.80;66.30;;;;;;5034083;28;20183;-84
2023/07/07 10:49:19;;;;;;;3.03;2.30;;;20.80;66.20;;;;;;5021284;28;20198;-84
2023/07/07 10:52:03;;;;;;;2.17;2.00;;;20.80;66.40;;;;;;5000805;28;20716;-86
2023/07/07 10:54:39;;;;;;;3.38;2.13;;;20.90;66.40;;;;;;5034427;28;20178;-87
2023/07/07 10:57:32;;;;;;;2.38;2.15;;;20.80;66.70;;;;;;5017956;28;20296;-86
2023/07/07 11:00:06;;;;;;;2.30;2.10;;;20.90;66.50;;;;;;5034272;28;20157;-85
2023/07/07 11:02:48;;;;;;;3.10;2.20;;;20.80;67.10;;;;;;5018518;28;20273;-86
2023/07/07 11:05:34;;;;;;;2.38;1.75;;;20.90;66.40;;;;;;5017463;28;20159;-86
2023/07/07 11:08:21;;;;;;;3.63;2.20;;;20.90;66.50;;;;;;5033777;28;20186;-85
2023/07/07 11:11:04;;;;;;;2.30;2.10;;;20.90;66.50;;;;;;5034144;28;20159;-85
2023/07/07 11:13:51;;;;;;;2.60;2.40;;;20.90;66.60;;;;;;5017868;28;20549;-86
2023/07/07 11:16:40;;;;;;;2.15;1.95;;;20.90;66.60;;;;;;5034563;28;20281;-86
2023/07/07 11:19:25;;;;;;;4.07;2.38;;;20.90;66.70;;;;;;5075567;28;20168;-85
2023/07/07 11:22:00;;;;;;;4.97;2.20;;;20.90;66.70;;;;;;5075350;28;20157;-85
2023/07/07 11:24:37;;;;;;;3.50;2.20;;;21.00;66.90;;;;;;5058574;28;20176;-85
2023/07/07 11:27:42;;;;;;;2.08;1.88;;;20.90;66.80;;;;;;5074821;28;20180;-85
2023/07/07 11:30:40;;;;;;;6.53;2.35;;;21.00;67.00;;;;;;5075147;28;20160;-85
2023/07/07 11:33:46;;;;;;;2.72;2.28;;;21.00;67.00;;;;;;5063156;28;20165;-85
2023/07/07 11:36:34;;;;;;;2.55;1.90;;;21.00;66.90;;;;;;5075765;28;20662;-86
2023/07/07 11:39:28;;;;;;;3.15;2.00;;;21.10;66.80;;;;;;5061975;28;20161;-86
2023/07/07 11:42:07;;;;;;;7.85;2.20;;;21.00;67.40;;;;;;5077753;28;20164;-85
2023/07/07 11:44:53;;;;;;;4.15;1.98;;;21.10;66.50;;;;;;5077442;28;20248;-86
2023/07/07 11:47:58;;;;;;;5.10;2.30;;;21.10;66.50;;;;;;5078422;28;20290;-84
2023/07/07 11:51:11;;;;;;;2.10;1.90;;;21.10;66.30;;;;;;5078073;28;20210;-86
2023/07/07 11:53:50;;;;;;;3.05;2.10;;;21.20;66.30;;;;;;5064236;28;20642;-85
2023/07/07 11:56:31;;;;;;;4.28;2.20;;;21.20;66.20;;;;;;5061657;28;20545;-86
2023/07/07 11:59:22;;;;;;;3.58;2.10;;;21.20;66.20;;;;;;5080345;28;20149;-86
2023/07/07 12:01:49;;;;;;;4.15;1.98;;;21.20;66.20;;;;;;5077941;28;20149;-85
2023/07/07 12:04:28;;;;;;;3.65;2.15;;;21.20;66.30;;;;;;5060833;28;20618;-86
2023/07/07 12:06:59;;;;;;;2.20;1.90;;;21.20;66.10;;;;;;5061407;28;20607;-85
2023/07/07 12:09:44;;;;;;;4.93;2.08;;;21.20;66.10;;;;;;5077744;28;20149;-85
2023/07/07 12:12:25;;;;;;;2.85;2.17;;;21.20;66.20;;;;;;5060718;28;20194;-85
2023/07/07 12:15:04;;;;;;;2.28;1.85;;;21.30;66.20;;;;;;5061560;28;20159;-85
2023/07/07 12:17:33;;;;;;;2.72;2.00;;;21.20;66.10;;;;;;5045158;28;20207;-86
2023/07/07 12:20:03;;;;;;;2.63;2.05;;;21.30;66.10;;;;;;5060349;28;20149;-86
2023/07/07 12:22:35;;;;;;;2.42;2.00;;;21.30;66.00;;;;;;5043403;28;20160;-87
2023/07/07 12:25:21;;;;;;;2.13;1.92;;;21.40;66.00;;;;;;5060234;28;20176;-87
2023/07/07 12:27:47;;;;;;;2.22;1.80;;;21.40;65.90;;;;;;5059991;28;20164;-87
2023/07/07 12:30:14;;;;;;;3.45;2.20;;;21.40;66.00;;;;;;5059794;28;20141;-87
2023/07/07 12:32:41;;;;;;;3.15;2.10;;;21.40;66.00;;;;;;5061166;28;20152;-85
2023/07/07 12:35:14;;;;;;;2.53;2.10;;;21.40;66.20;;;;;;5060334;28;20149;-86
2023/07/07 12:37:40;;;;;;;2.13;1.83;;;21.40;66.60;;;;;;5039888;28;20323;-86
2023/07/07 12:40:17;;;;;;;2.28;1.88;;;21.30;66.70;;;;;;5073516;28;20197;-88
2023/07/07 12:42:43;;;;;;;2.70;2.10;;;21.40;66.90;;;;;;5035435;28;20666;-85
2023/07/07 12:45:30;;;;;;;2.08;1.90;;;21.40;67.40;;;;;;5038090;28;20197;-86
2023/07/07 12:48:17;;;;;;;2.83;2.25;;;21.30;68.70;;;;;;5021097;28;20280;-84
2023/07/07 12:50:43;;;;;;;2.28;1.98;;;21.30;68.40;;;;;;5039684;28;20337;-84
2023/07/07 12:53:12;;;;;;;2.20;2.00;;;21.20;68.90;;;;;;5039323;28;20174;-86
2023/07/07 12:55:39;;;;;;;2.25;2.05;;;21.10;69.40;;;;;;5020560;28;20181;-86
2023/07/07 13:01:44;;;;;;;2.15;1.95;;;21.10;70.10;;;;;;4995588;28;20314;-87
2023/07/07 13:04:12;;;;;;;2.58;1.98;;;21.10;70.50;;;;;;4922252;29;20197;-87
2023/07/07 13:07:01;;;;;;;1.90;1.80;;;21.10;70.80;;;;;;4937400;29;20193;-89
2023/07/07 13:09:48;;;;;;;4.40;2.10;;;21.20;71.20;;;;;;4937075;29;20280;-89
2023/07/07 13:12:44;;;;;;;2.00;1.90;;;21.20;71.30;;;;;;4937869;29;20184;-88
2023/07/07 13:15:19;;;;;;;2.08;1.92;;;21.20;71.40;;;;;;4962976;29;20197;-86
2023/07/07 13:17:49;;;;;;;2.03;1.92;;;21.20;71.80;;;;;;4911940;29;20216;-86